sensor_id;sensor_type;location;lat;lon;timestamp;temperature;humidity
1355;DHT22;671;48.972;9.276;2023-01-23T00:01:14;2.50;1.00
1355;DHT22;671;48.972;9.276;2023-01-23T00:03:42;2.40;1.00
1355;DHT22;671;48.972;9.276;2023-01-23T00:06:11;2.40;1.00
1355;DHT22;671;48.972;9.276;2023-01-23T00:08:39;2.40;1.00
1355;DHT22;671;48.972;9.276;2023-01-23T00:11:18;2.30;1.00
1355;DHT22;671;48.972;9.276;2023-01-23T00:13:45;2.30;1.00
1355;DHT22;671;48.972;9.276;2023-01-23T00:16:15;2.30;1.00
1355;DHT22;671;48.972;9.276;2023-01-23T00:18:41;2.30;1.00
1355;DHT22;671;48.972;9.276;2023-01-23T00:21:16;2.40;1.00
1355;DHT22;671;48.972;9.276;2023-01-23T00:23:44;2.40;1.00
1355;DHT22;671;48.972;9.276;2023-01-23T00:26:14;2.40;1.00
1355;DHT22;671;48.972;9.276;2023-01-23T00:28:42;2.40;1.00
1355;DHT22;671;48.972;9.276;2023-01-23T00:31:11;2.40;1.00
1355;DHT22;671;48.972;9.276;2023-01-23T00:33:39;2.40;1.00
1355;DHT22;671;48.972;9.276;2023-01-23T00:36:07;2.40;1.00
1355;DHT22;671;48.972;9.276;2023-01-23T00:38:34;2.40;1.00
1355;DHT22;671;48.972;9.276;2023-01-23T00:41:01;2.40;1.00
1355;DHT22;671;48.972;9.276;2023-01-23T00:43:29;2.50;1.00
1355;DHT22;671;48.972;9.276;2023-01-23T00:45:56;2.50;1.00
1355;DHT22;671;48.972;9.276;2023-01-23T00:48:23;2.60;1.00
1355;DHT22;671;48.972;9.276;2023-01-23T00:50:50;2.60;1.00
1355;DHT22;671;48.972;9.276;2023-01-23T00:53:17;2.60;1.00
1355;DHT22;671;48.972;9.276;2023-01-23T00:55:43;2.60;1.00
1355;DHT22;671;48.972;9.276;2023-01-23T00:58:09;2.70;1.00
1355;DHT22;671;48.972;9.276;2023-01-23T01:00:37;2.60;1.00
1355;DHT22;671;48.972;9.276;2023-01-23T01:03:05;2.60;1.00
1355;DHT22;671;48.972;9.276;2023-01-23T01:05:32;2.60;1.00
1355;DHT22;671;48.972;9.276;2023-01-23T01:07:58;2.70;1.00
1355;DHT22;671;48.972;9.276;2023-01-23T01:10:25;2.70;1.00
1355;DHT22;671;48.972;9.276;2023-01-23T01:12:56;2.70;1.00
1355;DHT22;671;48.972;9.276;2023-01-23T01:15:23;2.70;1.00
1355;DHT22;671;48.972;9.276;2023-01-23T01:17:50;2.70;1.00
1355;DHT22;671;48.972;9.276;2023-01-23T01:20:20;2.80;1.00
1355;DHT22;671;48.972;9.276;2023-01-23T01:22:49;2.80;1.00
1355;DHT22;671;48.972;9.276;2023-01-23T01:25:15;2.80;1.00
1355;DHT22;671;48.972;9.276;2023-01-23T01:27:42;2.80;1.00
1355;DHT22;671;48.972;9.276;2023-01-23T01:30:09;2.90;1.00
1355;DHT22;671;48.972;9.276;2023-01-23T01:32:36;2.90;1.00
1355;DHT22;671;48.972;9.276;2023-01-23T01:35:04;2.90;1.00
1355;DHT22;671;48.972;9.276;2023-01-23T01:37:33;2.90;1.00
1355;DHT22;671;48.972;9.276;2023-01-23T01:40:00;2.90;1.00
1355;DHT22;671;48.972;9.276;2023-01-23T01:42:27;2.90;1.00
1355;DHT22;671;48.972;9.276;2023-01-23T01:44:57;3.00;1.00
1355;DHT22;671;48.972;9.276;2023-01-23T01:47:24;3.00;1.00
1355;DHT22;671;48.972;9.276;2023-01-23T01:50:04;3.00;1.00
1355;DHT22;671;48.972;9.276;2023-01-23T01:52:31;3.00;1.00
1355;DHT22;671;48.972;9.276;2023-01-23T01:55:02;3.10;1.00
1355;DHT22;671;48.972;9.276;2023-01-23T01:57:32;3.00;1.00
1355;DHT22;671;48.972;9.276;2023-01-23T02:05:14;3.00;1.00
1355;DHT22;671;48.972;9.276;2023-01-23T02:07:45;3.00;1.00
1355;DHT22;671;48.972;9.276;2023-01-23T02:10:13;2.90;1.00
1355;DHT22;671;48.972;9.276;2023-01-23T02:12:46;3.00;1.00
1355;DHT22;671;48.972;9.276;2023-01-23T02:15:13;3.00;1.00
1355;DHT22;671;48.972;9.276;2023-01-23T02:17:40;3.00;1.00
1355;DHT22;671;48.972;9.276;2023-01-23T02:20:21;3.00;1.00
1355;DHT22;671;48.972;9.276;2023-01-23T02:23:07;3.00;1.00
1355;DHT22;671;48.972;9.276;2023-01-23T02:25:54;3.00;1.00
1355;DHT22;671;48.972;9.276;2023-01-23T02:28:21;3.00;1.00
1355;DHT22;671;48.972;9.276;2023-01-23T02:30:48;3.00;1.00
1355;DHT22;671;48.972;9.276;2023-01-23T02:35:45;3.00;1.00
1355;DHT22;671;48.972;9.276;2023-01-23T02:38:12;3.00;1.00
1355;DHT22;671;48.972;9.276;2023-01-23T02:40:40;3.00;1.00
1355;DHT22;671;48.972;9.276;2023-01-23T02:43:11;3.00;1.00
1355;DHT22;671;48.972;9.276;2023-01-23T02:45:38;3.00;1.00
1355;DHT22;671;48.972;9.276;2023-01-23T02:48:05;3.00;1.00
1355;DHT22;671;48.972;9.276;2023-01-23T02:50:33;3.00;1.00
1355;DHT22;671;48.972;9.276;2023-01-23T02:53:00;3.00;1.00
1355;DHT22;671;48.972;9.276;2023-01-23T02:55:26;2.90;1.00
1355;DHT22;671;48.972;9.276;2023-01-23T02:57:55;2.90;1.00
1355;DHT22;671;48.972;9.276;2023-01-23T03:00:42;2.80;1.00
1355;DHT22;671;48.972;9.276;2023-01-23T03:03:09;2.80;1.00
1355;DHT22;671;48.972;9.276;2023-01-23T03:05:35;2.80;1.00
1355;DHT22;671;48.972;9.276;2023-01-23T03:08:02;2.80;1.00
1355;DHT22;671;48.972;9.276;2023-01-23T03:10:28;2.80;1.00
1355;DHT22;671;48.972;9.276;2023-01-23T03:12:56;2.80;1.00
1355;DHT22;671;48.972;9.276;2023-01-23T03:15:35;2.90;1.00
1355;DHT22;671;48.972;9.276;2023-01-23T03:18:04;2.90;1.00
1355;DHT22;671;48.972;9.276;2023-01-23T03:20:38;2.90;1.00
1355;DHT22;671;48.972;9.276;2023-01-23T03:23:04;2.90;1.00
1355;DHT22;671;48.972;9.276;2023-01-23T03:25:31;2.80;1.00
1355;DHT22;671;48.972;9.276;2023-01-23T03:27:57;2.90;1.00
1355;DHT22;671;48.972;9.276;2023-01-23T03:30:24;2.90;1.00
1355;DHT22;671;48.972;9.276;2023-01-23T03:32:51;2.90;1.00
1355;DHT22;671;48.972;9.276;2023-01-23T03:35:18;2.90;1.00
1355;DHT22;671;48.972;9.276;2023-01-23T03:37:48;2.90;1.00
1355;DHT22;671;48.972;9.276;2023-01-23T03:40:23;2.90;1.00
1355;DHT22;671;48.972;9.276;2023-01-23T03:43:08;2.90;1.00
1355;DHT22;671;48.972;9.276;2023-01-23T03:45:35;2.90;1.00
1355;DHT22;671;48.972;9.276;2023-01-23T03:48:02;2.90;1.00
1355;DHT22;671;48.972;9.276;2023-01-23T03:50:28;2.90;1.00
1355;DHT22;671;48.972;9.276;2023-01-23T03:52:55;2.80;1.00
1355;DHT22;671;48.972;9.276;2023-01-23T03:55:21;2.80;1.00
1355;DHT22;671;48.972;9.276;2023-01-23T03:57:47;2.70;1.00
1355;DHT22;671;48.972;9.276;2023-01-23T04:00:14;2.60;1.00
1355;DHT22;671;48.972;9.276;2023-01-23T04:02:42;2.60;1.00
1355;DHT22;671;48.972;9.276;2023-01-23T04:05:09;2.60;1.00
1355;DHT22;671;48.972;9.276;2023-01-23T04:07:35;2.50;1.00
1355;DHT22;671;48.972;9.276;2023-01-23T04:10:02;2.60;1.00
1355;DHT22;671;48.972;9.276;2023-01-23T04:12:29;2.60;1.00
1355;DHT22;671;48.972;9.276;2023-01-23T04:14:55;2.50;1.00
1355;DHT22;671;48.972;9.276;2023-01-23T04:17:22;2.40;1.00
1355;DHT22;671;48.972;9.276;2023-01-23T04:19:48;2.40;1.00
1355;DHT22;671;48.972;9.276;2023-01-23T04:22:15;2.40;1.00
1355;DHT22;671;48.972;9.276;2023-01-23T04:24:41;2.40;1.00
1355;DHT22;671;48.972;9.276;2023-01-23T04:27:08;2.40;1.00
1355;DHT22;671;48.972;9.276;2023-01-23T04:29:35;2.40;1.00
1355;DHT22;671;48.972;9.276;2023-01-23T04:32:01;2.40;1.00
1355;DHT22;671;48.972;9.276;2023-01-23T04:34:28;2.40;1.00
1355;DHT22;671;48.972;9.276;2023-01-23T04:36:54;2.40;1.00
1355;DHT22;671;48.972;9.276;2023-01-23T04:39:21;2.40;1.00
1355;DHT22;671;48.972;9.276;2023-01-23T04:41:47;2.40;1.00
1355;DHT22;671;48.972;9.276;2023-01-23T04:44:14;2.40;1.00
1355;DHT22;671;48.972;9.276;2023-01-23T04:46:47;2.40;1.00
1355;DHT22;671;48.972;9.276;2023-01-23T04:49:18;2.40;1.00
1355;DHT22;671;48.972;9.276;2023-01-23T04:51:45;2.40;1.00
1355;DHT22;671;48.972;9.276;2023-01-23T04:54:13;2.40;1.00
1355;DHT22;671;48.972;9.276;2023-01-23T04:56:40;2.40;1.00
1355;DHT22;671;48.972;9.276;2023-01-23T04:59:07;2.40;1.00
1355;DHT22;671;48.972;9.276;2023-01-23T05:01:34;2.30;1.00
1355;DHT22;671;48.972;9.276;2023-01-23T05:04:01;2.30;1.00
1355;DHT22;671;48.972;9.276;2023-01-23T05:06:27;2.30;1.00
1355;DHT22;671;48.972;9.276;2023-01-23T05:08:54;2.30;1.00
1355;DHT22;671;48.972;9.276;2023-01-23T05:11:20;2.20;1.00
1355;DHT22;671;48.972;9.276;2023-01-23T05:13:47;2.20;1.00
1355;DHT22;671;48.972;9.276;2023-01-23T05:16:14;2.30;1.00
1355;DHT22;671;48.972;9.276;2023-01-23T05:18:40;2.20;1.00
1355;DHT22;671;48.972;9.276;2023-01-23T05:21:07;2.20;1.00
1355;DHT22;671;48.972;9.276;2023-01-23T05:23:33;2.20;1.00
1355;DHT22;671;48.972;9.276;2023-01-23T05:26:00;2.20;1.00
1355;DHT22;671;48.972;9.276;2023-01-23T05:28:26;2.20;1.00
1355;DHT22;671;48.972;9.276;2023-01-23T05:30:53;2.20;1.00
1355;DHT22;671;48.972;9.276;2023-01-23T05:33:19;2.20;1.00
1355;DHT22;671;48.972;9.276;2023-01-23T05:35:46;2.20;1.00
1355;DHT22;671;48.972;9.276;2023-01-23T05:38:12;2.20;1.00
1355;DHT22;671;48.972;9.276;2023-01-23T05:40:39;2.20;1.00
1355;DHT22;671;48.972;9.276;2023-01-23T05:43:06;2.20;1.00
1355;DHT22;671;48.972;9.276;2023-01-23T05:45:32;2.20;1.00
1355;DHT22;671;48.972;9.276;2023-01-23T05:47:59;2.20;1.00
1355;DHT22;671;48.972;9.276;2023-01-23T05:50:26;2.20;1.00
1355;DHT22;671;48.972;9.276;2023-01-23T05:52:52;2.20;1.00
1355;DHT22;671;48.972;9.276;2023-01-23T05:55:19;2.20;1.00
1355;DHT22;671;48.972;9.276;2023-01-23T05:57:45;2.30;1.00
1355;DHT22;671;48.972;9.276;2023-01-23T06:00:13;2.30;1.00
1355;DHT22;671;48.972;9.276;2023-01-23T06:02:40;2.30;1.00
1355;DHT22;671;48.972;9.276;2023-01-23T06:05:07;2.30;1.00
1355;DHT22;671;48.972;9.276;2023-01-23T06:07:33;2.30;1.00
1355;DHT22;671;48.972;9.276;2023-01-23T06:10:00;2.30;1.00
1355;DHT22;671;48.972;9.276;2023-01-23T06:12:26;2.30;1.00
1355;DHT22;671;48.972;9.276;2023-01-23T06:14:53;2.20;1.00
1355;DHT22;671;48.972;9.276;2023-01-23T06:17:19;2.20;1.00
1355;DHT22;671;48.972;9.276;2023-01-23T06:19:47;2.30;1.00
1355;DHT22;671;48.972;9.276;2023-01-23T06:22:13;2.20;1.00
1355;DHT22;671;48.972;9.276;2023-01-23T06:24:39;2.30;1.00
1355;DHT22;671;48.972;9.276;2023-01-23T06:27:06;2.20;1.00
1355;DHT22;671;48.972;9.276;2023-01-23T06:29:34;2.20;1.00
1355;DHT22;671;48.972;9.276;2023-01-23T06:32:01;2.20;1.00
1355;DHT22;671;48.972;9.276;2023-01-23T06:34:27;2.20;1.00
1355;DHT22;671;48.972;9.276;2023-01-23T06:36:54;2.20;1.00
1355;DHT22;671;48.972;9.276;2023-01-23T06:39:20;2.20;1.00
1355;DHT22;671;48.972;9.276;2023-01-23T06:41:47;2.20;1.00
1355;DHT22;671;48.972;9.276;2023-01-23T06:44:13;2.20;1.00
1355;DHT22;671;48.972;9.276;2023-01-23T06:46:40;2.20;1.00
1355;DHT22;671;48.972;9.276;2023-01-23T06:49:06;2.20;1.00
1355;DHT22;671;48.972;9.276;2023-01-23T06:51:33;2.20;1.00
1355;DHT22;671;48.972;9.276;2023-01-23T06:53:59;2.20;1.00
1355;DHT22;671;48.972;9.276;2023-01-23T06:56:26;2.20;1.00
1355;DHT22;671;48.972;9.276;2023-01-23T06:58:52;2.20;1.00
1355;DHT22;671;48.972;9.276;2023-01-23T07:01:19;2.20;1.00
1355;DHT22;671;48.972;9.276;2023-01-23T07:03:46;2.30;1.00
1355;DHT22;671;48.972;9.276;2023-01-23T07:06:13;2.20;1.00
1355;DHT22;671;48.972;9.276;2023-01-23T07:08:40;2.20;1.00
1355;DHT22;671;48.972;9.276;2023-01-23T07:11:08;2.20;1.00
1355;DHT22;671;48.972;9.276;2023-01-23T07:13:34;2.20;1.00
1355;DHT22;671;48.972;9.276;2023-01-23T07:16:01;2.20;1.00
1355;DHT22;671;48.972;9.276;2023-01-23T07:18:28;2.20;1.00
1355;DHT22;671;48.972;9.276;2023-01-23T07:20:55;2.30;1.00
1355;DHT22;671;48.972;9.276;2023-01-23T07:23:22;2.30;1.00
1355;DHT22;671;48.972;9.276;2023-01-23T07:25:49;2.30;1.00
1355;DHT22;671;48.972;9.276;2023-01-23T07:28:15;2.30;1.00
1355;DHT22;671;48.972;9.276;2023-01-23T07:30:41;2.30;1.00
1355;DHT22;671;48.972;9.276;2023-01-23T07:33:08;2.30;1.00
1355;DHT22;671;48.972;9.276;2023-01-23T07:35:37;2.30;1.00
1355;DHT22;671;48.972;9.276;2023-01-23T07:38:04;2.30;1.00
1355;DHT22;671;48.972;9.276;2023-01-23T07:40:30;2.30;1.00
1355;DHT22;671;48.972;9.276;2023-01-23T07:42:57;2.30;1.00
1355;DHT22;671;48.972;9.276;2023-01-23T07:45:23;2.30;1.00
1355;DHT22;671;48.972;9.276;2023-01-23T07:47:50;2.40;1.00
1355;DHT22;671;48.972;9.276;2023-01-23T07:50:16;2.40;1.00
1355;DHT22;671;48.972;9.276;2023-01-23T07:52:43;2.40;1.00
1355;DHT22;671;48.972;9.276;2023-01-23T07:55:09;2.40;1.00
1355;DHT22;671;48.972;9.276;2023-01-23T07:57:36;2.50;1.00
1355;DHT22;671;48.972;9.276;2023-01-23T08:00:03;2.60;1.00
1355;DHT22;671;48.972;9.276;2023-01-23T08:02:30;2.50;1.00
1355;DHT22;671;48.972;9.276;2023-01-23T08:04:57;2.60;1.00
1355;DHT22;671;48.972;9.276;2023-01-23T08:07:23;2.60;1.00
1355;DHT22;671;48.972;9.276;2023-01-23T08:09:50;2.60;1.00
1355;DHT22;671;48.972;9.276;2023-01-23T08:12:16;2.60;1.00
1355;DHT22;671;48.972;9.276;2023-01-23T08:14:42;2.60;1.00
1355;DHT22;671;48.972;9.276;2023-01-23T08:17:09;2.60;1.00
1355;DHT22;671;48.972;9.276;2023-01-23T08:19:35;2.60;1.00
1355;DHT22;671;48.972;9.276;2023-01-23T08:22:02;2.60;1.00
1355;DHT22;671;48.972;9.276;2023-01-23T08:24:29;2.70;1.00
1355;DHT22;671;48.972;9.276;2023-01-23T08:26:55;2.70;1.00
1355;DHT22;671;48.972;9.276;2023-01-23T08:29:21;2.80;99.90
1355;DHT22;671;48.972;9.276;2023-01-23T08:31:48;2.80;99.90
1355;DHT22;671;48.972;9.276;2023-01-23T08:34:14;2.90;99.90
1355;DHT22;671;48.972;9.276;2023-01-23T08:36:41;2.90;99.90
1355;DHT22;671;48.972;9.276;2023-01-23T08:39:07;2.90;1.00
1355;DHT22;671;48.972;9.276;2023-01-23T08:41:34;2.90;53.00
1355;DHT22;671;48.972;9.276;2023-01-23T08:44:00;3.00;55.20
1355;DHT22;671;48.972;9.276;2023-01-23T08:46:28;2.90;99.90
1355;DHT22;671;48.972;9.276;2023-01-23T08:48:54;2.90;99.90
1355;DHT22;671;48.972;9.276;2023-01-23T08:51:21;3.00;99.90
1355;DHT22;671;48.972;9.276;2023-01-23T08:53:51;3.00;99.90
1355;DHT22;671;48.972;9.276;2023-01-23T08:56:20;3.10;1.00
1355;DHT22;671;48.972;9.276;2023-01-23T08:58:48;3.10;1.00
1355;DHT22;671;48.972;9.276;2023-01-23T09:01:17;3.20;1.00
1355;DHT22;671;48.972;9.276;2023-01-23T09:03:44;3.30;99.90
1355;DHT22;671;48.972;9.276;2023-01-23T09:06:11;3.40;99.90
1355;DHT22;671;48.972;9.276;2023-01-23T09:08:38;3.50;1.00
1355;DHT22;671;48.972;9.276;2023-01-23T09:11:05;3.60;1.00
1355;DHT22;671;48.972;9.276;2023-01-23T09:13:33;3.70;99.90
1355;DHT22;671;48.972;9.276;2023-01-23T09:16:00;3.70;10.90
1355;DHT22;671;48.972;9.276;2023-01-23T09:18:27;3.80;1.00
1355;DHT22;671;48.972;9.276;2023-01-23T09:20:54;3.70;99.90
1355;DHT22;671;48.972;9.276;2023-01-23T09:23:21;3.70;99.90
1355;DHT22;671;48.972;9.276;2023-01-23T09:25:48;3.70;99.90
1355;DHT22;671;48.972;9.276;2023-01-23T09:28:14;3.70;99.90
1355;DHT22;671;48.972;9.276;2023-01-23T09:30:41;3.60;1.00
1355;DHT22;671;48.972;9.276;2023-01-23T09:33:07;3.60;1.00
1355;DHT22;671;48.972;9.276;2023-01-23T09:35:34;3.60;1.00
1355;DHT22;671;48.972;9.276;2023-01-23T09:38:03;3.50;1.00
1355;DHT22;671;48.972;9.276;2023-01-23T09:40:48;3.50;99.90
1355;DHT22;671;48.972;9.276;2023-01-23T09:45:56;3.50;1.00
1355;DHT22;671;48.972;9.276;2023-01-23T09:48:36;3.50;99.90
1355;DHT22;671;48.972;9.276;2023-01-23T09:51:19;3.50;99.90
1355;DHT22;671;48.972;9.276;2023-01-23T09:53:47;3.50;99.90
1355;DHT22;671;48.972;9.276;2023-01-23T09:56:29;3.60;99.90
1355;DHT22;671;48.972;9.276;2023-01-23T10:01:53;3.60;1.00
1355;DHT22;671;48.972;9.276;2023-01-23T10:04:19;3.60;1.00
1355;DHT22;671;48.972;9.276;2023-01-23T10:07:10;3.60;1.00
1355;DHT22;671;48.972;9.276;2023-01-23T10:09:43;3.60;99.90
1355;DHT22;671;48.972;9.276;2023-01-23T10:12:23;3.60;1.00
1355;DHT22;671;48.972;9.276;2023-01-23T10:25:49;4.00;99.90
1355;DHT22;671;48.972;9.276;2023-01-23T10:28:34;4.00;3.30
1355;DHT22;671;48.972;9.276;2023-01-23T10:31:27;4.00;1.00
1355;DHT22;671;48.972;9.276;2023-01-23T10:39:43;4.30;99.90
1355;DHT22;671;48.972;9.276;2023-01-23T10:42:13;4.40;99.90
1355;DHT22;671;48.972;9.276;2023-01-23T10:44:41;4.50;99.90
1355;DHT22;671;48.972;9.276;2023-01-23T10:47:28;4.60;99.90
1355;DHT22;671;48.972;9.276;2023-01-23T10:49:56;4.60;99.30
1355;DHT22;671;48.972;9.276;2023-01-23T10:52:37;4.60;1.00
1355;DHT22;671;48.972;9.276;2023-01-23T10:57:47;4.70;99.90
1355;DHT22;671;48.972;9.276;2023-01-23T11:00:44;4.60;1.00
1355;DHT22;671;48.972;9.276;2023-01-23T11:05:55;4.60;98.50
1355;DHT22;671;48.972;9.276;2023-01-23T11:08:36;4.40;20.30
1355;DHT22;671;48.972;9.276;2023-01-23T11:13:43;4.40;1.00
1355;DHT22;671;48.972;9.276;2023-01-23T11:16:21;4.40;99.90
1355;DHT22;671;48.972;9.276;2023-01-23T11:21:37;4.60;99.90
1355;DHT22;671;48.972;9.276;2023-01-23T11:27:14;4.60;1.00
1355;DHT22;671;48.972;9.276;2023-01-23T11:32:58;4.50;1.00
1355;DHT22;671;48.972;9.276;2023-01-23T11:35:49;4.50;78.80
1355;DHT22;671;48.972;9.276;2023-01-23T11:38:24;4.40;99.90
1355;DHT22;671;48.972;9.276;2023-01-23T11:40:51;4.40;1.00
1355;DHT22;671;48.972;9.276;2023-01-23T11:43:18;4.40;99.90
1355;DHT22;671;48.972;9.276;2023-01-23T11:45:58;4.40;42.70
1355;DHT22;671;48.972;9.276;2023-01-23T11:51:21;4.20;1.00
1355;DHT22;671;48.972;9.276;2023-01-23T12:08:14;4.60;99.90
1355;DHT22;671;48.972;9.276;2023-01-23T12:11:11;4.50;99.90
1355;DHT22;671;48.972;9.276;2023-01-23T12:25:01;4.60;99.90
1355;DHT22;671;48.972;9.276;2023-01-23T12:27:45;4.60;1.00
1355;DHT22;671;48.972;9.276;2023-01-23T12:35:59;4.60;99.90
1355;DHT22;671;48.972;9.276;2023-01-23T12:41:35;4.50;99.90
1355;DHT22;671;48.972;9.276;2023-01-23T12:44:20;4.60;1.00
1355;DHT22;671;48.972;9.276;2023-01-23T12:47:00;4.70;99.90
1355;DHT22;671;48.972;9.276;2023-01-23T12:49:47;4.70;99.90
1355;DHT22;671;48.972;9.276;2023-01-23T12:55:13;4.80;99.90
1355;DHT22;671;48.972;9.276;2023-01-23T12:57:41;4.90;99.90
1355;DHT22;671;48.972;9.276;2023-01-23T13:03:27;5.00;99.90
1355;DHT22;671;48.972;9.276;2023-01-23T13:14:24;5.10;1.00
1355;DHT22;671;48.972;9.276;2023-01-23T13:23:31;5.10;16.90
1355;DHT22;671;48.972;9.276;2023-01-23T13:28:52;5.30;34.60
1355;DHT22;671;48.972;9.276;2023-01-23T13:33:53;5.30;99.20
1355;DHT22;671;48.972;9.276;2023-01-23T13:36:26;5.20;21.20
1355;DHT22;671;48.972;9.276;2023-01-23T13:41:43;5.20;33.20
1355;DHT22;671;48.972;9.276;2023-01-23T13:44:26;5.20;99.90
1355;DHT22;671;48.972;9.276;2023-01-23T13:50:13;5.10;99.90
1355;DHT22;671;48.972;9.276;2023-01-23T13:52:55;5.10;99.90
1355;DHT22;671;48.972;9.276;2023-01-23T13:55:45;5.00;99.90
1355;DHT22;671;48.972;9.276;2023-01-23T13:58:32;5.00;99.90
1355;DHT22;671;48.972;9.276;2023-01-23T14:01:28;5.10;99.90
1355;DHT22;671;48.972;9.276;2023-01-23T14:04:19;5.10;99.90
1355;DHT22;671;48.972;9.276;2023-01-23T14:07:31;5.10;99.90
1355;DHT22;671;48.972;9.276;2023-01-23T14:10:16;5.00;99.90
1355;DHT22;671;48.972;9.276;2023-01-23T14:12:45;4.90;99.90
1355;DHT22;671;48.972;9.276;2023-01-23T14:15:19;4.90;99.90
1355;DHT22;671;48.972;9.276;2023-01-23T14:18:05;4.90;99.90
1355;DHT22;671;48.972;9.276;2023-01-23T14:20:38;4.90;1.00
1355;DHT22;671;48.972;9.276;2023-01-23T14:23:16;5.00;1.00
1355;DHT22;671;48.972;9.276;2023-01-23T14:25:43;5.00;1.00
1355;DHT22;671;48.972;9.276;2023-01-23T14:28:15;5.00;1.00
1355;DHT22;671;48.972;9.276;2023-01-23T14:30:54;5.00;1.00
1355;DHT22;671;48.972;9.276;2023-01-23T14:33:20;4.90;99.90
1355;DHT22;671;48.972;9.276;2023-01-23T14:35:47;4.80;99.90
1355;DHT22;671;48.972;9.276;2023-01-23T14:38:25;4.90;1.00
1355;DHT22;671;48.972;9.276;2023-01-23T14:40:52;4.90;1.00
1355;DHT22;671;48.972;9.276;2023-01-23T14:43:21;4.90;1.00
1355;DHT22;671;48.972;9.276;2023-01-23T14:45:59;4.90;1.00
1355;DHT22;671;48.972;9.276;2023-01-23T14:48:27;4.90;1.00
1355;DHT22;671;48.972;9.276;2023-01-23T14:51:04;4.90;1.00
1355;DHT22;671;48.972;9.276;2023-01-23T14:53:31;5.00;99.90
1355;DHT22;671;48.972;9.276;2023-01-23T14:55:58;4.90;1.00
1355;DHT22;671;48.972;9.276;2023-01-23T14:58:26;4.90;1.00
1355;DHT22;671;48.972;9.276;2023-01-23T15:00:54;4.90;1.00
1355;DHT22;671;48.972;9.276;2023-01-23T15:03:35;4.90;1.00
1355;DHT22;671;48.972;9.276;2023-01-23T15:06:05;4.80;1.00
1355;DHT22;671;48.972;9.276;2023-01-23T15:08:33;4.80;95.90
1355;DHT22;671;48.972;9.276;2023-01-23T15:11:00;4.70;99.90
1355;DHT22;671;48.972;9.276;2023-01-23T15:13:50;4.60;99.90
1355;DHT22;671;48.972;9.276;2023-01-23T15:16:20;4.60;99.90
1355;DHT22;671;48.972;9.276;2023-01-23T15:18:55;4.60;1.00
1355;DHT22;671;48.972;9.276;2023-01-23T15:21:29;4.50;1.00
1355;DHT22;671;48.972;9.276;2023-01-23T15:27:04;4.40;99.90
1355;DHT22;671;48.972;9.276;2023-01-23T15:29:31;4.40;1.00
1355;DHT22;671;48.972;9.276;2023-01-23T15:31:59;4.40;1.00
1355;DHT22;671;48.972;9.276;2023-01-23T15:34:30;4.40;1.00
1355;DHT22;671;48.972;9.276;2023-01-23T15:36:58;4.30;1.00
1355;DHT22;671;48.972;9.276;2023-01-23T15:39:50;4.30;1.00
1355;DHT22;671;48.972;9.276;2023-01-23T15:44:44;4.20;99.90
1355;DHT22;671;48.972;9.276;2023-01-23T15:47:11;4.10;1.00
1355;DHT22;671;48.972;9.276;2023-01-23T15:49:39;4.10;1.00
1355;DHT22;671;48.972;9.276;2023-01-23T15:54:41;4.00;99.90
1355;DHT22;671;48.972;9.276;2023-01-23T15:57:11;3.90;99.90
1355;DHT22;671;48.972;9.276;2023-01-23T15:59:38;3.90;1.00
1355;DHT22;671;48.972;9.276;2023-01-23T16:02:29;3.90;53.70
1355;DHT22;671;48.972;9.276;2023-01-23T16:04:55;3.90;1.00
1355;DHT22;671;48.972;9.276;2023-01-23T16:07:47;3.90;1.00
1355;DHT22;671;48.972;9.276;2023-01-23T16:12:49;3.80;99.90
1355;DHT22;671;48.972;9.276;2023-01-23T16:17:44;3.70;99.90
1355;DHT22;671;48.972;9.276;2023-01-23T16:20:27;3.70;1.00
1355;DHT22;671;48.972;9.276;2023-01-23T16:22:58;3.80;1.00
1355;DHT22;671;48.972;9.276;2023-01-23T16:25:30;3.70;1.00
1355;DHT22;671;48.972;9.276;2023-01-23T16:27:57;3.70;1.00
1355;DHT22;671;48.972;9.276;2023-01-23T16:30:25;3.70;1.00
1355;DHT22;671;48.972;9.276;2023-01-23T16:32:53;3.70;1.00
1355;DHT22;671;48.972;9.276;2023-01-23T16:35:21;3.70;1.00
1355;DHT22;671;48.972;9.276;2023-01-23T16:37:50;3.70;1.00
1355;DHT22;671;48.972;9.276;2023-01-23T16:40:26;3.70;1.00
1355;DHT22;671;48.972;9.276;2023-01-23T16:42:54;3.70;1.00
1355;DHT22;671;48.972;9.276;2023-01-23T16:45:26;3.70;1.00
1355;DHT22;671;48.972;9.276;2023-01-23T16:47:53;3.70;1.00
1355;DHT22;671;48.972;9.276;2023-01-23T16:50:36;3.70;1.00
1355;DHT22;671;48.972;9.276;2023-01-23T16:53:07;3.70;1.00
1355;DHT22;671;48.972;9.276;2023-01-23T16:55:38;3.70;1.00
1355;DHT22;671;48.972;9.276;2023-01-23T16:58:06;3.70;1.00
1355;DHT22;671;48.972;9.276;2023-01-23T17:00:34;3.70;1.00
1355;DHT22;671;48.972;9.276;2023-01-23T17:03:03;3.70;93.80
1355;DHT22;671;48.972;9.276;2023-01-23T17:05:33;3.70;41.40
1355;DHT22;671;48.972;9.276;2023-01-23T17:07:59;3.70;99.60
1355;DHT22;671;48.972;9.276;2023-01-23T17:10:26;3.70;96.40
1355;DHT22;671;48.972;9.276;2023-01-23T17:12:55;3.70;99.90
1355;DHT22;671;48.972;9.276;2023-01-23T17:15:29;3.80;99.90
1355;DHT22;671;48.972;9.276;2023-01-23T17:17:57;3.70;99.90
1355;DHT22;671;48.972;9.276;2023-01-23T17:20:26;3.70;99.90
1355;DHT22;671;48.972;9.276;2023-01-23T17:22:55;3.70;99.90
1355;DHT22;671;48.972;9.276;2023-01-23T17:25:24;3.70;99.90
1355;DHT22;671;48.972;9.276;2023-01-23T17:27:52;3.80;99.90
1355;DHT22;671;48.972;9.276;2023-01-23T17:30:23;3.80;99.90
1355;DHT22;671;48.972;9.276;2023-01-23T17:32:55;3.80;99.90
1355;DHT22;671;48.972;9.276;2023-01-23T17:35:31;3.80;99.90
1355;DHT22;671;48.972;9.276;2023-01-23T17:37:59;3.80;99.90
1355;DHT22;671;48.972;9.276;2023-01-23T17:40:26;3.80;99.90
1355;DHT22;671;48.972;9.276;2023-01-23T17:42:53;3.80;99.90
1355;DHT22;671;48.972;9.276;2023-01-23T17:45:22;3.90;99.90
1355;DHT22;671;48.972;9.276;2023-01-23T17:47:51;3.90;99.90
1355;DHT22;671;48.972;9.276;2023-01-23T17:50:21;3.90;94.40
1355;DHT22;671;48.972;9.276;2023-01-23T17:52:48;3.90;94.30
1355;DHT22;671;48.972;9.276;2023-01-23T17:55:18;3.90;99.90
1355;DHT22;671;48.972;9.276;2023-01-23T17:57:45;4.00;94.50
1355;DHT22;671;48.972;9.276;2023-01-23T18:00:13;4.00;94.30
1355;DHT22;671;48.972;9.276;2023-01-23T18:02:42;4.10;94.00
1355;DHT22;671;48.972;9.276;2023-01-23T18:05:13;4.10;1.00
1355;DHT22;671;48.972;9.276;2023-01-23T18:07:39;4.10;1.00
1355;DHT22;671;48.972;9.276;2023-01-23T18:10:08;4.10;1.00
1355;DHT22;671;48.972;9.276;2023-01-23T18:13:57;4.10;1.00
1355;DHT22;671;48.972;9.276;2023-01-23T18:18:51;4.10;1.00
1355;DHT22;671;48.972;9.276;2023-01-23T18:21:20;4.10;1.00
1355;DHT22;671;48.972;9.276;2023-01-23T18:23:47;4.10;1.00
1355;DHT22;671;48.972;9.276;2023-01-23T18:34:56;4.20;1.00
1355;DHT22;671;48.972;9.276;2023-01-23T18:40:22;4.20;1.00
1355;DHT22;671;48.972;9.276;2023-01-23T18:45:51;4.20;1.00
1355;DHT22;671;48.972;9.276;2023-01-23T18:48:17;4.20;1.00
1355;DHT22;671;48.972;9.276;2023-01-23T18:51:00;4.20;1.00
1355;DHT22;671;48.972;9.276;2023-01-23T18:54:41;4.20;1.00
1355;DHT22;671;48.972;9.276;2023-01-23T19:07:41;4.20;1.00
1355;DHT22;671;48.972;9.276;2023-01-23T19:12:45;4.20;1.00
1355;DHT22;671;48.972;9.276;2023-01-23T19:15:37;4.20;1.00
1355;DHT22;671;48.972;9.276;2023-01-23T19:20:59;4.20;1.00
1355;DHT22;671;48.972;9.276;2023-01-23T19:26:26;4.10;1.00
1355;DHT22;671;48.972;9.276;2023-01-23T19:28:58;4.10;1.00
1355;DHT22;671;48.972;9.276;2023-01-23T19:31:32;4.10;94.10
1355;DHT22;671;48.972;9.276;2023-01-23T19:34:00;4.10;94.00
1355;DHT22;671;48.972;9.276;2023-01-23T19:36:29;4.10;94.10
1355;DHT22;671;48.972;9.276;2023-01-23T19:38:55;4.10;94.40
1355;DHT22;671;48.972;9.276;2023-01-23T19:44:17;4.10;99.90
1355;DHT22;671;48.972;9.276;2023-01-23T19:46:44;4.10;99.90
1355;DHT22;671;48.972;9.276;2023-01-23T19:49:11;4.10;99.90
1355;DHT22;671;48.972;9.276;2023-01-23T19:51:39;4.10;99.90
1355;DHT22;671;48.972;9.276;2023-01-23T19:54:06;4.10;95.50
1355;DHT22;671;48.972;9.276;2023-01-23T19:56:35;4.10;99.90